createdAt,value
2023-01-23T00:02:06.358Z,102277.61
2023-01-23T00:06:59.250Z,102287.23
2023-01-23T00:11:52.563Z,102281.55
2023-01-23T00:16:46.002Z,102283.29
2023-01-23T00:22:15.054Z,102286.16
2023-01-23T00:27:17.051Z,102295.52
2023-01-23T00:32:09.974Z,102297.52
2023-01-23T00:37:02.836Z,102300.90
2023-01-23T00:41:55.806Z,102305.23
2023-01-23T00:46:50.269Z,102298.20
2023-01-23T00:51:44.261Z,102292.05
2023-01-23T00:56:37.174Z,102290.74
2023-01-23T01:01:32.025Z,102293.77
2023-01-23T01:06:29.990Z,102294.17
2023-01-23T01:11:23.398Z,102297.85
2023-01-23T01:16:16.955Z,102297.66
2023-01-23T01:21:13.005Z,102304.16
2023-01-23T01:26:07.464Z,102310.46
2023-01-23T01:31:09.333Z,102318.20
2023-01-23T01:36:03.100Z,102327.94
2023-01-23T01:40:57.471Z,102328.14
2023-01-23T01:46:14.732Z,102329.50
2023-01-23T01:51:28.150Z,102335.49
2023-01-23T01:56:24.006Z,102332.60
2023-01-23T02:01:18.215Z,102336.85
2023-01-23T02:06:11.089Z,102341.26
2023-01-23T02:11:05.395Z,102355.58
2023-01-23T02:16:00.936Z,102372.05
2023-01-23T02:20:55.981Z,102363.42
2023-01-23T02:26:04.471Z,102363.76
2023-01-23T02:30:57.359Z,102366.55
2023-01-23T02:35:50.809Z,102365.38
2023-01-23T02:40:44.628Z,102371.19
2023-01-23T02:45:41.957Z,102371.69
2023-01-23T02:50:36.110Z,102374.41
2023-01-23T02:55:33.357Z,102377.23
2023-01-23T03:00:26.941Z,102378.43
2023-01-23T03:05:20.378Z,102380.51
2023-01-23T03:10:13.991Z,102375.13
2023-01-23T03:15:10.246Z,102374.41
2023-01-23T03:20:04.435Z,102380.52
2023-01-23T03:24:58.038Z,102381.96
2023-01-23T03:30:08.514Z,102385.86
2023-01-23T03:35:02.539Z,102381.86
2023-01-23T03:40:13.230Z,102381.38
2023-01-23T03:45:07.329Z,102386.23
2023-01-23T03:50:01.380Z,102388.39
2023-01-23T03:54:56.480Z,102398.09
2023-01-23T03:59:49.894Z,102402.59
2023-01-23T04:04:45.051Z,102403.96
2023-01-23T04:09:38.359Z,102399.56
2023-01-23T04:14:37.876Z,102403.07
2023-01-23T04:19:31.502Z,102402.02
2023-01-23T04:24:25.093Z,102402.80
2023-01-23T04:29:18.321Z,102404.02
2023-01-23T04:34:11.363Z,102414.42
2023-01-23T04:39:06.023Z,102426.02
2023-01-23T04:44:20.502Z,102428.45
2023-01-23T04:49:36.736Z,102431.56
2023-01-23T04:54:30.312Z,102431.98
2023-01-23T04:59:24.132Z,102435.41
2023-01-23T05:04:17.356Z,102436.05
2023-01-23T05:09:12.729Z,102438.85
2023-01-23T05:14:11.352Z,102441.58
2023-01-23T05:19:05.733Z,102441.33
2023-01-23T05:23:59.772Z,102444.94
2023-01-23T05:28:52.737Z,102445.85
2023-01-23T05:33:46.256Z,102449.98
2023-01-23T05:38:40.636Z,102450.95
2023-01-23T05:43:33.895Z,102454.89
2023-01-23T05:48:52.581Z,102463.36
2023-01-23T05:53:47.340Z,102471.27
2023-01-23T05:58:40.510Z,102480.36
2023-01-23T06:03:56.277Z,102486.76
2023-01-23T06:08:56.440Z,102490.77
2023-01-23T06:13:49.803Z,102499.19
2023-01-23T06:18:43.393Z,102509.40
2023-01-23T06:23:36.294Z,102507.17
2023-01-23T06:28:29.202Z,102513.41
2023-01-23T06:33:22.162Z,102520.81
2023-01-23T06:38:15.301Z,102530.71
2023-01-23T06:43:08.848Z,102539.48
2023-01-23T06:48:01.688Z,102550.65
2023-01-23T06:52:54.927Z,102558.40
2023-01-23T06:57:48.519Z,102562.67
2023-01-23T07:02:44.001Z,102569.51
2023-01-23T07:07:38.414Z,102567.52
2023-01-23T07:12:31.294Z,102568.77
2023-01-23T07:17:24.229Z,102568.05
2023-01-23T07:22:22.243Z,102574.31
2023-01-23T07:27:16.335Z,102580.11
2023-01-23T07:32:11.022Z,102585.55
2023-01-23T07:37:04.175Z,102590.45
2023-01-23T07:41:56.990Z,102588.39
2023-01-23T07:46:53.481Z,102585.92
2023-01-23T07:51:46.749Z,102589.52
2023-01-23T07:56:39.556Z,102588.39
2023-01-23T08:01:32.539Z,102595.64
2023-01-23T08:06:25.358Z,102600.95
2023-01-23T08:11:18.202Z,102599.88
2023-01-23T08:16:13.476Z,102606.61
2023-01-23T08:21:06.691Z,102610.36
2023-01-23T08:26:01.820Z,102608.31
2023-01-23T08:30:55.347Z,102616.58
2023-01-23T08:35:53.667Z,102617.67
2023-01-23T08:40:48.295Z,102622.00
2023-01-23T08:45:42.265Z,102627.39
2023-01-23T08:50:35.576Z,102631.16
2023-01-23T08:55:29.189Z,102640.69
2023-01-23T09:00:23.356Z,102644.11
2023-01-23T09:05:16.670Z,102643.98
2023-01-23T09:10:11.485Z,102641.44
2023-01-23T09:15:04.431Z,102638.25
2023-01-23T09:20:00.646Z,102640.10
2023-01-23T09:24:53.536Z,102635.54
2023-01-23T09:29:46.638Z,102634.38
2023-01-23T09:34:39.807Z,102637.58
2023-01-23T09:39:32.657Z,102635.04
2023-01-23T09:44:37.590Z,102632.79
2023-01-23T09:49:46.255Z,102629.76
2023-01-23T09:54:51.183Z,102631.02
2023-01-23T10:00:00.756Z,102631.21
2023-01-23T10:04:55.131Z,102629.98
2023-01-23T10:10:26.683Z,102633.20
2023-01-23T10:15:29.691Z,102627.17
2023-01-23T10:20:42.658Z,102624.22
2023-01-23T10:25:41.154Z,102628.64
2023-01-23T10:30:38.619Z,102626.21
2023-01-23T10:35:47.306Z,102625.66
2023-01-23T10:40:57.809Z,102624.64
2023-01-23T10:45:51.632Z,102619.39
2023-01-23T10:50:44.523Z,102620.08
2023-01-23T10:55:37.502Z,102619.60
2023-01-23T11:00:48.629Z,102620.77
2023-01-23T11:05:53.049Z,102621.83
2023-01-23T11:10:46.166Z,102617.32
2023-01-23T11:15:41.065Z,102615.86
2023-01-23T11:20:40.250Z,102610.59
2023-01-23T11:25:34.559Z,102611.64
2023-01-23T11:30:45.698Z,102613.70
2023-01-23T11:35:57.400Z,102611.61
2023-01-23T11:40:50.230Z,102601.02
2023-01-23T11:46:00.849Z,102604.53
2023-01-23T11:51:01.100Z,102604.81
2023-01-23T11:56:15.054Z,102606.36
2023-01-23T12:01:39.895Z,102598.98
2023-01-23T12:06:56.831Z,102593.05
2023-01-23T12:12:13.319Z,102594.42
2023-01-23T12:17:18.016Z,102595.00
2023-01-23T12:22:30.797Z,102595.27
2023-01-23T12:27:40.393Z,102599.67
2023-01-23T12:33:02.949Z,102608.71
2023-01-23T12:38:35.394Z,102612.77
2023-01-23T12:43:49.703Z,102613.14
2023-01-23T12:48:51.391Z,102615.09
2023-01-23T12:53:47.688Z,102615.96
2023-01-23T12:58:51.809Z,102616.07
2023-01-23T13:04:05.476Z,102616.45
2023-01-23T13:09:17.709Z,102621.06
2023-01-23T13:15:06.849Z,102633.47
2023-01-23T13:20:53.490Z,102632.30
2023-01-23T13:25:46.840Z,102638.52
2023-01-23T13:30:40.905Z,102643.32
2023-01-23T13:35:44.797Z,102646.58
2023-01-23T13:40:37.944Z,102647.61
2023-01-23T13:45:32.049Z,102648.50
2023-01-23T14:22:19.787Z,102672.69
2023-01-23T14:27:51.372Z,102670.19
2023-01-23T14:32:47.059Z,102670.17
2023-01-23T14:37:40.166Z,102669.84
2023-01-23T14:42:33.986Z,102669.54
2023-01-23T14:47:34.640Z,102664.83
2023-01-23T14:52:31.320Z,102664.74
2023-01-23T14:57:26.222Z,102661.77
2023-01-23T15:02:31.350Z,102666.16
2023-01-23T15:07:25.135Z,102671.27
2023-01-23T15:12:19.961Z,102680.67
2023-01-23T15:17:20.072Z,102685.40
2023-01-23T15:22:23.413Z,102683.10
2023-01-23T15:27:49.177Z,102683.10
2023-01-23T15:32:42.048Z,102681.11
2023-01-23T15:37:34.895Z,102679.42
2023-01-23T15:42:33.942Z,102680.46
2023-01-23T15:47:27.216Z,102689.35
2023-01-23T15:52:24.133Z,102694.73
2023-01-23T15:57:17.368Z,102699.61
2023-01-23T16:02:29.480Z,102694.51
2023-01-23T16:07:37.573Z,102692.56
2023-01-23T16:12:32.846Z,102693.04
2023-01-23T16:17:26.212Z,102701.58
2023-01-23T16:22:29.522Z,102701.85
2023-01-23T16:27:27.571Z,102700.48
2023-01-23T16:32:20.781Z,102704.73
2023-01-23T16:37:19.054Z,102704.86
2023-01-23T16:42:23.337Z,102702.77
2023-01-23T16:47:16.205Z,102704.81
2023-01-23T16:52:16.097Z,102707.97
2023-01-23T16:57:17.955Z,102705.59
2023-01-23T17:02:28.982Z,102706.78
2023-01-23T17:07:22.269Z,102712.09
2023-01-23T17:12:24.390Z,102720.96
2023-01-23T17:17:24.858Z,102719.85
2023-01-23T17:22:27.142Z,102716.23
2023-01-23T17:27:20.100Z,102712.13
2023-01-23T17:32:35.897Z,102717.67
2023-01-23T17:37:28.800Z,102722.02
2023-01-23T17:42:22.560Z,102725.70
2023-01-23T17:47:16.855Z,102727.15
2023-01-23T17:52:13.242Z,102724.98
2023-01-23T17:57:06.045Z,102725.67
2023-01-23T18:01:59.751Z,102726.69
2023-01-23T18:06:53.017Z,102724.14
2023-01-23T18:11:52.443Z,102731.73
2023-01-23T18:16:48.253Z,102729.33
2023-01-23T18:21:41.512Z,102722.98
2023-01-23T18:26:59.598Z,102718.30
2023-01-23T18:31:52.408Z,102721.58
2023-01-23T18:36:59.291Z,102724.17
2023-01-23T18:42:14.827Z,102720.24
2023-01-23T18:47:16.127Z,102715.78
2023-01-23T18:52:35.557Z,102723.16
2023-01-23T18:58:07.346Z,102722.66
2023-01-23T19:03:12.220Z,102727.34
2023-01-23T19:08:05.288Z,102730.44
2023-01-23T19:13:15.560Z,102732.44
2023-01-23T19:18:42.476Z,102731.67
2023-01-23T19:23:43.081Z,102733.91
2023-01-23T19:28:38.573Z,102735.57
2023-01-23T19:33:31.634Z,102736.17
2023-01-23T19:38:25.284Z,102739.41
2023-01-23T19:43:19.471Z,102737.48
2023-01-23T19:48:12.566Z,102736.47
2023-01-23T19:53:06.156Z,102736.09
2023-01-23T19:57:59.229Z,102736.63
2023-01-23T20:02:53.719Z,102743.15
2023-01-23T20:07:47.510Z,102746.15
2023-01-23T20:12:42.746Z,102745.21
2023-01-23T20:17:35.573Z,102747.65
2023-01-23T20:22:31.050Z,102748.70
2023-01-23T20:27:24.039Z,102747.46
2023-01-23T20:32:19.180Z,102745.70
2023-01-23T20:37:14.460Z,102744.08
2023-01-23T20:42:08.856Z,102745.70
2023-01-23T20:47:02.862Z,102749.20
2023-01-23T20:52:16.266Z,102749.92
2023-01-23T20:57:09.914Z,102749.98
2023-01-23T21:02:23.442Z,102752.89
2023-01-23T21:07:16.722Z,102758.09
2023-01-23T21:12:10.117Z,102752.41
2023-01-23T21:17:05.507Z,102753.20
2023-01-23T21:21:58.621Z,102757.83
2023-01-23T21:26:52.611Z,102762.34
2023-01-23T21:31:45.852Z,102765.73
2023-01-23T21:36:39.601Z,102765.98
2023-01-23T21:41:32.386Z,102762.33
2023-01-23T21:46:25.285Z,102759.80
2023-01-23T21:51:22.321Z,102756.16
2023-01-23T21:56:18.388Z,102763.90
2023-01-23T22:01:33.648Z,102760.76
2023-01-23T22:06:26.984Z,102760.59
2023-01-23T22:11:20.480Z,102763.86
2023-01-23T22:16:13.805Z,102763.55
2023-01-23T22:21:07.756Z,102759.92
2023-01-23T22:26:09.362Z,102758.44
2023-01-23T22:31:13.720Z,102761.31
2023-01-23T22:36:07.901Z,102765.05
2023-01-23T22:41:02.852Z,102766.48
2023-01-23T22:46:14.352Z,102771.76
2023-01-23T22:51:13.987Z,102776.56
2023-01-23T22:56:07.296Z,102781.61
2023-01-23T23:01:00.152Z,102781.23
2023-01-23T23:06:04.524Z,102782.55
2023-01-23T23:11:19.644Z,102786.27
2023-01-23T23:16:15.599Z,102792.14
2023-01-23T23:21:14.832Z,102790.23
2023-01-23T23:26:10.437Z,102791.10
2023-01-23T23:31:03.429Z,102787.88
2023-01-23T23:35:56.581Z,102793.38
2023-01-23T23:41:04.308Z,102788.85
2023-01-23T23:46:01.630Z,102785.13
2023-01-23T23:50:54.868Z,102780.84
2023-01-23T23:55:48.766Z,102778.86
